sensor_id;sensor_type;location;lat;lon;timestamp;pressure;altitude;pressure_sealevel;temperature;humidity
78841;BME280;68379;47.190;27.558;2023-05-29T00:01:11;99860.52;;;13.74;62.13
78841;BME280;68379;47.190;27.558;2023-05-29T00:03:40;99862.11;;;13.71;62.31
78841;BME280;68379;47.190;27.558;2023-05-29T00:06:11;99861.27;;;13.66;62.56
78841;BME280;68379;47.190;27.558;2023-05-29T00:08:41;99860.25;;;13.62;63.57
78841;BME280;68379;47.190;27.558;2023-05-29T00:11:14;99860.41;;;13.59;62.95
78841;BME280;68379;47.190;27.558;2023-05-29T00:13:43;99858.23;;;13.56;62.95
78841;BME280;68379;47.190;27.558;2023-05-29T00:16:13;99862.05;;;13.55;63.10
78841;BME280;68379;47.190;27.558;2023-05-29T00:18:42;99861.88;;;13.55;63.07
78841;BME280;68379;47.190;27.558;2023-05-29T00:21:14;99860.84;;;13.54;63.65
78841;BME280;68379;47.190;27.558;2023-05-29T00:23:45;99860.37;;;13.56;63.64
78841;BME280;68379;47.190;27.558;2023-05-29T00:26:14;99861.80;;;13.56;63.88
78841;BME280;68379;47.190;27.558;2023-05-29T00:28:45;99861.78;;;13.56;64.29
78841;BME280;68379;47.190;27.558;2023-05-29T00:31:15;99861.42;;;13.53;63.82
78841;BME280;68379;47.190;27.558;2023-05-29T00:33:44;99860.90;;;13.49;63.86
78841;BME280;68379;47.190;27.558;2023-05-29T00:36:14;99862.59;;;13.47;63.97
78841;BME280;68379;47.190;27.558;2023-05-29T00:38:44;99855.43;;;13.45;64.20
78841;BME280;68379;47.190;27.558;2023-05-29T00:41:15;99853.34;;;13.44;64.17
78841;BME280;68379;47.190;27.558;2023-05-29T00:43:45;99851.85;;;13.42;64.43
78841;BME280;68379;47.190;27.558;2023-05-29T00:46:15;99852.69;;;13.40;64.63
78841;BME280;68379;47.190;27.558;2023-05-29T00:48:45;99851.40;;;13.37;64.83
78841;BME280;68379;47.190;27.558;2023-05-29T00:51:14;99855.08;;;13.35;64.95
78841;BME280;68379;47.190;27.558;2023-05-29T00:53:45;99855.83;;;13.31;64.89
78841;BME280;68379;47.190;27.558;2023-05-29T00:56:15;99861.67;;;13.27;65.50
78841;BME280;68379;47.190;27.558;2023-05-29T00:58:46;99863.92;;;13.23;65.36
78841;BME280;68379;47.190;27.558;2023-05-29T01:01:16;99864.47;;;13.20;65.21
78841;BME280;68379;47.190;27.558;2023-05-29T01:03:47;99861.92;;;13.18;65.33
78841;BME280;68379;47.190;27.558;2023-05-29T01:06:17;99858.23;;;13.13;65.41
78841;BME280;68379;47.190;27.558;2023-05-29T01:08:48;99860.50;;;13.11;66.15
78841;BME280;68379;47.190;27.558;2023-05-29T01:11:21;99861.49;;;13.09;65.65
78841;BME280;68379;47.190;27.558;2023-05-29T01:13:56;99863.61;;;13.05;65.82
78841;BME280;68379;47.190;27.558;2023-05-29T01:16:38;99858.30;;;13.01;66.54
78841;BME280;68379;47.190;27.558;2023-05-29T01:22:09;99856.56;;;12.97;66.75
78841;BME280;68379;47.190;27.558;2023-05-29T01:24:48;99858.02;;;12.96;66.04
78841;BME280;68379;47.190;27.558;2023-05-29T01:27:20;99856.91;;;12.93;66.54
78841;BME280;68379;47.190;27.558;2023-05-29T01:29:52;99859.09;;;12.93;66.49
78841;BME280;68379;47.190;27.558;2023-05-29T01:32:25;99864.33;;;12.91;66.08
78841;BME280;68379;47.190;27.558;2023-05-29T01:34:54;99864.31;;;12.87;66.67
78841;BME280;68379;47.190;27.558;2023-05-29T01:37:24;99865.93;;;12.83;66.65
78841;BME280;68379;47.190;27.558;2023-05-29T01:39:55;99869.29;;;12.79;66.51
78841;BME280;68379;47.190;27.558;2023-05-29T01:42:26;99871.54;;;12.77;66.70
78841;BME280;68379;47.190;27.558;2023-05-29T01:44:57;99872.48;;;12.72;66.57
78841;BME280;68379;47.190;27.558;2023-05-29T01:47:27;99873.14;;;12.69;66.48
78841;BME280;68379;47.190;27.558;2023-05-29T01:49:57;99878.64;;;12.66;66.43
78841;BME280;68379;47.190;27.558;2023-05-29T01:52:27;99874.73;;;12.62;66.30
78841;BME280;68379;47.190;27.558;2023-05-29T01:54:57;99879.23;;;12.57;66.47
78841;BME280;68379;47.190;27.558;2023-05-29T01:57:26;99879.81;;;12.52;67.56
78841;BME280;68379;47.190;27.558;2023-05-29T01:59:57;99880.85;;;12.45;67.15
78841;BME280;68379;47.190;27.558;2023-05-29T02:02:27;99881.35;;;12.42;67.22
78841;BME280;68379;47.190;27.558;2023-05-29T02:04:57;99877.43;;;12.38;67.15
78841;BME280;68379;47.190;27.558;2023-05-29T02:07:26;99880.77;;;12.35;67.51
78841;BME280;68379;47.190;27.558;2023-05-29T02:09:56;99882.45;;;12.29;67.76
78841;BME280;68379;47.190;27.558;2023-05-29T02:12:26;99882.41;;;12.26;67.90
78841;BME280;68379;47.190;27.558;2023-05-29T02:14:56;99887.07;;;12.21;68.47
78841;BME280;68379;47.190;27.558;2023-05-29T02:17:25;99888.39;;;12.16;68.16
78841;BME280;68379;47.190;27.558;2023-05-29T02:19:55;99888.07;;;12.11;68.20
78841;BME280;68379;47.190;27.558;2023-05-29T02:22:25;99886.50;;;12.06;68.77
78841;BME280;68379;47.190;27.558;2023-05-29T02:24:54;99889.31;;;12.03;69.22
78841;BME280;68379;47.190;27.558;2023-05-29T02:27:24;99889.58;;;12.01;68.74
78841;BME280;68379;47.190;27.558;2023-05-29T02:29:53;99891.36;;;12.01;68.70
78841;BME280;68379;47.190;27.558;2023-05-29T02:32:23;99890.98;;;12.01;68.49
78841;BME280;68379;47.190;27.558;2023-05-29T02:34:55;99891.55;;;12.00;69.48
78841;BME280;68379;47.190;27.558;2023-05-29T02:37:25;99892.01;;;11.98;70.23
78841;BME280;68379;47.190;27.558;2023-05-29T02:39:54;99894.90;;;11.96;70.71
78841;BME280;68379;47.190;27.558;2023-05-29T02:42:24;99896.19;;;11.95;69.91
78841;BME280;68379;47.190;27.558;2023-05-29T02:44:54;99900.44;;;11.95;70.00
78841;BME280;68379;47.190;27.558;2023-05-29T02:47:24;99902.69;;;11.96;70.48
78841;BME280;68379;47.190;27.558;2023-05-29T02:49:54;99910.56;;;11.95;70.25
78841;BME280;68379;47.190;27.558;2023-05-29T02:52:23;99909.88;;;11.94;69.94
78841;BME280;68379;47.190;27.558;2023-05-29T02:54:53;99902.36;;;11.91;70.67
78841;BME280;68379;47.190;27.558;2023-05-29T02:57:24;99909.46;;;11.91;70.76
78841;BME280;68379;47.190;27.558;2023-05-29T02:59:54;99909.33;;;11.91;70.25
78841;BME280;68379;47.190;27.558;2023-05-29T03:02:25;99911.90;;;11.92;69.96
78841;BME280;68379;47.190;27.558;2023-05-29T03:04:55;99915.98;;;11.96;69.79
78841;BME280;68379;47.190;27.558;2023-05-29T03:07:24;99922.30;;;12.02;69.80
78841;BME280;68379;47.190;27.558;2023-05-29T03:09:54;99924.26;;;12.06;69.72
78841;BME280;68379;47.190;27.558;2023-05-29T03:12:25;99921.61;;;12.09;69.57
78841;BME280;68379;47.190;27.558;2023-05-29T03:14:56;99921.61;;;12.13;69.91
78841;BME280;68379;47.190;27.558;2023-05-29T03:17:26;99923.33;;;12.15;69.93
78841;BME280;68379;47.190;27.558;2023-05-29T03:19:57;99924.66;;;12.17;69.45
78841;BME280;68379;47.190;27.558;2023-05-29T03:22:27;99920.98;;;12.20;69.34
78841;BME280;68379;47.190;27.558;2023-05-29T03:24:57;99920.67;;;12.22;69.57
78841;BME280;68379;47.190;27.558;2023-05-29T03:27:27;99918.54;;;12.23;69.92
78841;BME280;68379;47.190;27.558;2023-05-29T03:29:58;99919.16;;;12.25;69.64
78841;BME280;68379;47.190;27.558;2023-05-29T03:32:28;99916.94;;;12.27;70.21
78841;BME280;68379;47.190;27.558;2023-05-29T03:34:58;99922.39;;;12.28;69.80
78841;BME280;68379;47.190;27.558;2023-05-29T03:37:29;99926.44;;;12.28;70.41
78841;BME280;68379;47.190;27.558;2023-05-29T03:39:59;99930.16;;;12.28;70.37
78841;BME280;68379;47.190;27.558;2023-05-29T03:42:28;99934.73;;;12.29;70.46
78841;BME280;68379;47.190;27.558;2023-05-29T03:45:00;99937.41;;;12.32;70.01
78841;BME280;68379;47.190;27.558;2023-05-29T03:47:30;99938.50;;;12.35;69.74
78841;BME280;68379;47.190;27.558;2023-05-29T03:50:00;99939.35;;;12.40;69.33
78841;BME280;68379;47.190;27.558;2023-05-29T03:52:30;99941.81;;;12.45;69.77
78841;BME280;68379;47.190;27.558;2023-05-29T03:55:00;99948.93;;;12.48;69.54
78841;BME280;68379;47.190;27.558;2023-05-29T03:57:30;99951.54;;;12.53;69.27
78841;BME280;68379;47.190;27.558;2023-05-29T04:00:00;99955.52;;;12.59;69.44
78841;BME280;68379;47.190;27.558;2023-05-29T04:02:31;99959.25;;;12.66;69.02
78841;BME280;68379;47.190;27.558;2023-05-29T04:05:01;99962.67;;;12.76;68.81
78841;BME280;68379;47.190;27.558;2023-05-29T04:07:31;99963.04;;;12.88;68.71
78841;BME280;68379;47.190;27.558;2023-05-29T04:10:01;99966.06;;;12.99;68.40
78841;BME280;68379;47.190;27.558;2023-05-29T04:12:31;99964.04;;;13.08;68.13
78841;BME280;68379;47.190;27.558;2023-05-29T04:15:01;99965.95;;;13.16;67.99
78841;BME280;68379;47.190;27.558;2023-05-29T04:17:32;99965.09;;;13.23;67.78
78841;BME280;68379;47.190;27.558;2023-05-29T04:20:04;99964.17;;;13.32;67.53
78841;BME280;68379;47.190;27.558;2023-05-29T04:22:38;99959.55;;;13.35;67.30
78841;BME280;68379;47.190;27.558;2023-05-29T04:25:10;99952.45;;;13.43;67.34
78841;BME280;68379;47.190;27.558;2023-05-29T04:27:40;99955.05;;;13.54;66.96
78841;BME280;68379;47.190;27.558;2023-05-29T04:30:11;99961.02;;;13.70;66.76
78841;BME280;68379;47.190;27.558;2023-05-29T04:32:42;99959.33;;;13.86;66.52
78841;BME280;68379;47.190;27.558;2023-05-29T04:35:12;99956.84;;;14.00;65.96
78841;BME280;68379;47.190;27.558;2023-05-29T04:37:43;99956.09;;;14.11;65.33
78841;BME280;68379;47.190;27.558;2023-05-29T04:40:15;99955.30;;;14.20;65.14
78841;BME280;68379;47.190;27.558;2023-05-29T04:42:45;99959.83;;;14.25;64.94
78841;BME280;68379;47.190;27.558;2023-05-29T04:45:15;99958.23;;;14.35;65.04
78841;BME280;68379;47.190;27.558;2023-05-29T04:47:50;99958.39;;;14.45;64.70
78841;BME280;68379;47.190;27.558;2023-05-29T04:50:21;99959.01;;;14.57;64.55
78841;BME280;68379;47.190;27.558;2023-05-29T04:52:52;99959.77;;;14.70;64.58
78841;BME280;68379;47.190;27.558;2023-05-29T04:55:23;99963.23;;;14.81;64.65
78841;BME280;68379;47.190;27.558;2023-05-29T04:57:53;99959.41;;;14.92;64.36
78841;BME280;68379;47.190;27.558;2023-05-29T05:00:24;99963.80;;;15.06;63.99
78841;BME280;68379;47.190;27.558;2023-05-29T05:02:54;99964.57;;;15.18;63.98
78841;BME280;68379;47.190;27.558;2023-05-29T05:05:25;99969.61;;;15.32;63.24
78841;BME280;68379;47.190;27.558;2023-05-29T05:07:55;99974.89;;;15.43;62.64
78841;BME280;68379;47.190;27.558;2023-05-29T05:10:25;99973.78;;;15.53;61.12
78841;BME280;68379;47.190;27.558;2023-05-29T05:12:55;99971.59;;;15.57;61.33
78841;BME280;68379;47.190;27.558;2023-05-29T05:15:25;99976.55;;;15.58;60.46
78841;BME280;68379;47.190;27.558;2023-05-29T05:17:55;99977.86;;;15.68;61.27
78841;BME280;68379;47.190;27.558;2023-05-29T05:20:25;99977.48;;;15.85;60.51
78841;BME280;68379;47.190;27.558;2023-05-29T05:22:55;99983.38;;;16.00;60.98
78841;BME280;68379;47.190;27.558;2023-05-29T05:25:25;99984.04;;;16.15;61.21
78841;BME280;68379;47.190;27.558;2023-05-29T05:27:55;99984.87;;;16.28;60.91
78841;BME280;68379;47.190;27.558;2023-05-29T05:30:25;99987.89;;;16.40;61.14
78841;BME280;68379;47.190;27.558;2023-05-29T05:32:55;99989.45;;;16.52;61.12
78841;BME280;68379;47.190;27.558;2023-05-29T05:35:25;99987.08;;;16.68;60.33
78841;BME280;68379;47.190;27.558;2023-05-29T05:37:55;99990.25;;;16.77;59.12
78841;BME280;68379;47.190;27.558;2023-05-29T05:40:27;99994.89;;;16.86;59.29
78841;BME280;68379;47.190;27.558;2023-05-29T05:42:57;99992.52;;;16.97;58.81
78841;BME280;68379;47.190;27.558;2023-05-29T05:45:27;99989.14;;;17.04;57.44
78841;BME280;68379;47.190;27.558;2023-05-29T05:47:57;99986.84;;;17.09;58.37
78841;BME280;68379;47.190;27.558;2023-05-29T05:50:28;99983.42;;;17.17;58.18
78841;BME280;68379;47.190;27.558;2023-05-29T05:52:57;99987.21;;;17.25;56.94
78841;BME280;68379;47.190;27.558;2023-05-29T05:55:28;99989.59;;;17.32;57.11
78841;BME280;68379;47.190;27.558;2023-05-29T05:57:58;99990.72;;;17.48;57.25
78841;BME280;68379;47.190;27.558;2023-05-29T06:00:28;99987.76;;;17.58;56.44
78841;BME280;68379;47.190;27.558;2023-05-29T06:02:59;99987.10;;;17.68;56.17
78841;BME280;68379;47.190;27.558;2023-05-29T06:05:30;99991.29;;;17.80;55.67
78841;BME280;68379;47.190;27.558;2023-05-29T06:08:00;99993.60;;;17.89;55.77
78841;BME280;68379;47.190;27.558;2023-05-29T06:10:30;99990.20;;;17.97;53.96
78841;BME280;68379;47.190;27.558;2023-05-29T06:12:59;99989.46;;;18.07;55.20
78841;BME280;68379;47.190;27.558;2023-05-29T06:15:29;99987.34;;;18.22;55.59
78841;BME280;68379;47.190;27.558;2023-05-29T06:17:59;99986.27;;;18.31;54.39
78841;BME280;68379;47.190;27.558;2023-05-29T06:20:30;99984.02;;;18.35;53.57
78841;BME280;68379;47.190;27.558;2023-05-29T06:22:59;99978.75;;;18.34;53.73
78841;BME280;68379;47.190;27.558;2023-05-29T06:25:30;99981.27;;;18.31;53.69
78841;BME280;68379;47.190;27.558;2023-05-29T06:28:02;99975.03;;;18.35;54.16
78841;BME280;68379;47.190;27.558;2023-05-29T06:30:34;99970.78;;;18.45;53.39
78841;BME280;68379;47.190;27.558;2023-05-29T06:33:04;99970.73;;;18.53;53.88
78841;BME280;68379;47.190;27.558;2023-05-29T06:35:34;99973.09;;;18.68;52.71
78841;BME280;68379;47.190;27.558;2023-05-29T06:38:04;99973.31;;;18.75;52.85
78841;BME280;68379;47.190;27.558;2023-05-29T06:40:34;99972.83;;;18.82;51.95
78841;BME280;68379;47.190;27.558;2023-05-29T06:43:04;99973.98;;;18.91;51.73
78841;BME280;68379;47.190;27.558;2023-05-29T06:45:35;99968.88;;;19.02;52.18
78841;BME280;68379;47.190;27.558;2023-05-29T06:48:04;99970.08;;;19.10;51.63
78841;BME280;68379;47.190;27.558;2023-05-29T06:50:35;99968.86;;;19.15;52.10
78841;BME280;68379;47.190;27.558;2023-05-29T06:53:04;99970.91;;;19.26;51.92
78841;BME280;68379;47.190;27.558;2023-05-29T06:55:34;99971.63;;;19.38;51.87
78841;BME280;68379;47.190;27.558;2023-05-29T06:58:04;99972.56;;;19.52;51.77
78841;BME280;68379;47.190;27.558;2023-05-29T07:00:34;99971.09;;;19.60;50.81
78841;BME280;68379;47.190;27.558;2023-05-29T07:03:04;99971.36;;;19.68;50.31
78841;BME280;68379;47.190;27.558;2023-05-29T07:05:34;99967.87;;;19.72;50.47
78841;BME280;68379;47.190;27.558;2023-05-29T07:08:04;99967.97;;;19.90;50.96
78841;BME280;68379;47.190;27.558;2023-05-29T07:10:34;99963.63;;;20.13;50.55
78841;BME280;68379;47.190;27.558;2023-05-29T07:13:04;99963.45;;;20.23;49.14
78841;BME280;68379;47.190;27.558;2023-05-29T07:15:36;99965.66;;;20.36;49.36
78841;BME280;68379;47.190;27.558;2023-05-29T07:18:07;99969.30;;;20.49;49.17
78841;BME280;68379;47.190;27.558;2023-05-29T07:20:37;99966.75;;;20.64;49.53
78841;BME280;68379;47.190;27.558;2023-05-29T07:23:07;99966.06;;;20.76;47.88
78841;BME280;68379;47.190;27.558;2023-05-29T07:25:36;99967.08;;;20.75;47.38
78841;BME280;68379;47.190;27.558;2023-05-29T07:28:06;99967.29;;;20.82;47.86
78841;BME280;68379;47.190;27.558;2023-05-29T07:30:36;99965.14;;;20.91;47.22
78841;BME280;68379;47.190;27.558;2023-05-29T07:33:06;99960.67;;;20.99;47.96
78841;BME280;68379;47.190;27.558;2023-05-29T07:35:36;99957.36;;;21.20;48.61
78841;BME280;68379;47.190;27.558;2023-05-29T07:38:06;99960.26;;;21.35;46.89
78841;BME280;68379;47.190;27.558;2023-05-29T07:40:36;99962.71;;;21.45;46.46
78841;BME280;68379;47.190;27.558;2023-05-29T07:43:06;99959.15;;;21.49;46.14
78841;BME280;68379;47.190;27.558;2023-05-29T07:45:36;99958.21;;;21.68;46.91
78841;BME280;68379;47.190;27.558;2023-05-29T07:48:06;99959.01;;;21.85;46.47
78841;BME280;68379;47.190;27.558;2023-05-29T07:50:36;99957.15;;;22.00;46.09
78841;BME280;68379;47.190;27.558;2023-05-29T07:53:07;99956.83;;;22.13;45.16
78841;BME280;68379;47.190;27.558;2023-05-29T07:55:36;99953.73;;;22.24;44.99
78841;BME280;68379;47.190;27.558;2023-05-29T07:58:07;99951.98;;;22.34;44.54
78841;BME280;68379;47.190;27.558;2023-05-29T08:00:38;99955.67;;;22.33;42.88
78841;BME280;68379;47.190;27.558;2023-05-29T08:03:08;99955.19;;;22.34;43.78
78841;BME280;68379;47.190;27.558;2023-05-29T08:05:38;99946.89;;;22.42;42.76
78841;BME280;68379;47.190;27.558;2023-05-29T08:08:08;99947.42;;;22.49;43.68
78841;BME280;68379;47.190;27.558;2023-05-29T08:10:41;99949.35;;;22.58;42.52
78841;BME280;68379;47.190;27.558;2023-05-29T08:13:11;99948.31;;;22.59;41.84
78841;BME280;68379;47.190;27.558;2023-05-29T08:15:41;99943.55;;;22.64;41.82
78841;BME280;68379;47.190;27.558;2023-05-29T08:18:11;99942.52;;;22.62;41.79
78841;BME280;68379;47.190;27.558;2023-05-29T08:20:41;99944.59;;;22.59;42.37
78841;BME280;68379;47.190;27.558;2023-05-29T08:23:12;99945.50;;;22.75;42.53
78841;BME280;68379;47.190;27.558;2023-05-29T08:25:42;99941.89;;;22.83;41.45
78841;BME280;68379;47.190;27.558;2023-05-29T08:28:12;99939.27;;;22.88;42.24
78841;BME280;68379;47.190;27.558;2023-05-29T08:30:42;99938.06;;;23.02;42.18
78841;BME280;68379;47.190;27.558;2023-05-29T08:33:11;99935.71;;;23.18;41.72
78841;BME280;68379;47.190;27.558;2023-05-29T08:35:41;99931.23;;;23.26;40.74
78841;BME280;68379;47.190;27.558;2023-05-29T08:38:11;99930.61;;;23.40;41.05
78841;BME280;68379;47.190;27.558;2023-05-29T08:40:42;99926.84;;;23.46;38.75
78841;BME280;68379;47.190;27.558;2023-05-29T08:43:14;99919.81;;;23.48;40.20
78841;BME280;68379;47.190;27.558;2023-05-29T08:45:46;99917.88;;;23.54;39.69
78841;BME280;68379;47.190;27.558;2023-05-29T08:48:17;99915.55;;;23.59;39.11
78841;BME280;68379;47.190;27.558;2023-05-29T08:50:48;99914.70;;;23.64;39.84
78841;BME280;68379;47.190;27.558;2023-05-29T08:53:22;99914.15;;;23.70;38.66
78841;BME280;68379;47.190;27.558;2023-05-29T08:55:52;99911.52;;;23.74;39.48
78841;BME280;68379;47.190;27.558;2023-05-29T08:58:24;99910.92;;;23.88;38.58
78841;BME280;68379;47.190;27.558;2023-05-29T09:00:55;99911.64;;;23.99;38.36
78841;BME280;68379;47.190;27.558;2023-05-29T09:03:26;99914.42;;;24.16;38.25
78841;BME280;68379;47.190;27.558;2023-05-29T09:06:00;99916.42;;;24.23;37.42
78841;BME280;68379;47.190;27.558;2023-05-29T09:08:32;99917.48;;;24.37;36.59
78841;BME280;68379;47.190;27.558;2023-05-29T09:11:01;99912.45;;;24.35;36.40
78841;BME280;68379;47.190;27.558;2023-05-29T09:13:32;99906.98;;;24.39;36.88
78841;BME280;68379;47.190;27.558;2023-05-29T09:16:02;99903.92;;;24.44;35.58
78841;BME280;68379;47.190;27.558;2023-05-29T09:18:32;99907.39;;;24.50;35.40
78841;BME280;68379;47.190;27.558;2023-05-29T09:21:08;99908.80;;;24.69;35.42
78841;BME280;68379;47.190;27.558;2023-05-29T09:23:38;99905.27;;;24.84;35.45
78841;BME280;68379;47.190;27.558;2023-05-29T09:26:09;99907.05;;;25.03;35.33
78841;BME280;68379;47.190;27.558;2023-05-29T09:28:46;99903.98;;;25.10;34.39
78841;BME280;68379;47.190;27.558;2023-05-29T09:31:17;99896.21;;;25.10;34.28
78841;BME280;68379;47.190;27.558;2023-05-29T09:33:51;99900.89;;;25.11;34.02
78841;BME280;68379;47.190;27.558;2023-05-29T09:36:22;99900.77;;;25.22;33.81
78841;BME280;68379;47.190;27.558;2023-05-29T09:38:52;99901.23;;;25.27;33.30
78841;BME280;68379;47.190;27.558;2023-05-29T09:41:25;99896.35;;;25.31;33.40
78841;BME280;68379;47.190;27.558;2023-05-29T09:43:56;99895.44;;;25.44;33.53
78841;BME280;68379;47.190;27.558;2023-05-29T09:46:26;99894.67;;;25.60;33.51
78841;BME280;68379;47.190;27.558;2023-05-29T09:49:03;99895.27;;;25.86;33.82
78841;BME280;68379;47.190;27.558;2023-05-29T09:51:38;99894.30;;;26.14;32.75
78841;BME280;68379;47.190;27.558;2023-05-29T09:54:18;99891.45;;;26.32;33.11
78841;BME280;68379;47.190;27.558;2023-05-29T09:56:49;99890.25;;;26.32;31.30
78841;BME280;68379;47.190;27.558;2023-05-29T09:59:20;99886.70;;;26.19;32.07
78841;BME280;68379;47.190;27.558;2023-05-29T10:02:02;99881.40;;;26.25;32.53
78841;BME280;68379;47.190;27.558;2023-05-29T10:04:33;99882.00;;;26.41;32.11
78841;BME280;68379;47.190;27.558;2023-05-29T10:07:07;99883.47;;;26.43;33.16
78841;BME280;68379;47.190;27.558;2023-05-29T10:09:41;99882.13;;;26.54;32.38
78841;BME280;68379;47.190;27.558;2023-05-29T10:12:12;99883.46;;;26.57;32.32
78841;BME280;68379;47.190;27.558;2023-05-29T10:14:44;99885.50;;;26.46;32.21
78841;BME280;68379;47.190;27.558;2023-05-29T10:17:16;99889.02;;;26.10;32.74
78841;BME280;68379;47.190;27.558;2023-05-29T10:19:49;99894.71;;;25.72;32.69
78841;BME280;68379;47.190;27.558;2023-05-29T10:22:21;99891.04;;;25.64;33.64
78841;BME280;68379;47.190;27.558;2023-05-29T10:24:53;99889.95;;;25.76;33.15
78841;BME280;68379;47.190;27.558;2023-05-29T10:27:24;99882.52;;;25.80;32.74
78841;BME280;68379;47.190;27.558;2023-05-29T10:29:59;99872.98;;;26.15;33.16
78841;BME280;68379;47.190;27.558;2023-05-29T10:32:40;99867.15;;;26.64;32.42
78841;BME280;68379;47.190;27.558;2023-05-29T10:35:18;99865.71;;;26.89;31.27
78841;BME280;68379;47.190;27.558;2023-05-29T10:37:53;99866.48;;;27.04;30.67
78841;BME280;68379;47.190;27.558;2023-05-29T10:40:27;99865.54;;;27.09;30.69
78841;BME280;68379;47.190;27.558;2023-05-29T10:42:56;99858.69;;;27.27;30.44
78841;BME280;68379;47.190;27.558;2023-05-29T10:45:50;99857.05;;;27.44;30.78
78841;BME280;68379;47.190;27.558;2023-05-29T10:48:51;99855.96;;;27.80;30.73
78841;BME280;68379;47.190;27.558;2023-05-29T10:51:27;99859.00;;;28.10;29.86
78841;BME280;68379;47.190;27.558;2023-05-29T10:53:58;99853.08;;;28.14;29.36
78841;BME280;68379;47.190;27.558;2023-05-29T10:56:30;99848.08;;;28.21;28.94
78841;BME280;68379;47.190;27.558;2023-05-29T10:59:01;99854.61;;;28.39;29.27
78841;BME280;68379;47.190;27.558;2023-05-29T11:01:31;99853.35;;;28.55;28.92
78841;BME280;68379;47.190;27.558;2023-05-29T11:04:28;99847.45;;;28.57;29.18
78841;BME280;68379;47.190;27.558;2023-05-29T11:07:01;99847.85;;;28.43;28.51
78841;BME280;68379;47.190;27.558;2023-05-29T11:09:36;99844.83;;;27.75;28.44
78841;BME280;68379;47.190;27.558;2023-05-29T11:12:25;99841.12;;;27.73;29.19
78841;BME280;68379;47.190;27.558;2023-05-29T11:15:08;99839.19;;;28.10;29.10
78841;BME280;68379;47.190;27.558;2023-05-29T11:17:47;99832.91;;;28.11;28.53
78841;BME280;68379;47.190;27.558;2023-05-29T11:20:35;99836.98;;;28.24;28.28
78841;BME280;68379;47.190;27.558;2023-05-29T11:23:06;99836.98;;;28.45;29.39
78841;BME280;68379;47.190;27.558;2023-05-29T11:25:38;99836.84;;;28.19;28.84
78841;BME280;68379;47.190;27.558;2023-05-29T11:28:09;99838.23;;;27.66;29.22
78841;BME280;68379;47.190;27.558;2023-05-29T11:30:44;99834.55;;;27.24;29.39
78841;BME280;68379;47.190;27.558;2023-05-29T11:33:22;99833.31;;;27.43;29.91
78841;BME280;68379;47.190;27.558;2023-05-29T11:35:54;99829.64;;;27.98;29.18
78841;BME280;68379;47.190;27.558;2023-05-29T11:38:25;99824.55;;;28.19;27.29
78841;BME280;68379;47.190;27.558;2023-05-29T11:40:56;99819.27;;;28.38;27.43
78841;BME280;68379;47.190;27.558;2023-05-29T11:43:27;99818.91;;;28.76;27.81
78841;BME280;68379;47.190;27.558;2023-05-29T11:45:57;99812.89;;;29.11;27.04
78841;BME280;68379;47.190;27.558;2023-05-29T11:48:27;99814.74;;;29.47;27.13
78841;BME280;68379;47.190;27.558;2023-05-29T11:50:57;99818.21;;;29.78;26.87
78841;BME280;68379;47.190;27.558;2023-05-29T11:53:28;99815.39;;;29.48;26.69
78841;BME280;68379;47.190;27.558;2023-05-29T11:56:08;99812.30;;;28.91;27.41
78841;BME280;68379;47.190;27.558;2023-05-29T11:58:39;99806.49;;;28.59;27.90
78841;BME280;68379;47.190;27.558;2023-05-29T12:01:09;99804.42;;;28.73;27.83
78841;BME280;68379;47.190;27.558;2023-05-29T12:03:40;99797.27;;;28.86;27.96
78841;BME280;68379;47.190;27.558;2023-05-29T12:06:11;99796.13;;;28.69;27.76
78841;BME280;68379;47.190;27.558;2023-05-29T12:08:41;99789.45;;;28.88;28.02
78841;BME280;68379;47.190;27.558;2023-05-29T12:11:11;99785.73;;;29.26;27.66
78841;BME280;68379;47.190;27.558;2023-05-29T12:13:41;99786.20;;;29.66;27.87
78841;BME280;68379;47.190;27.558;2023-05-29T12:16:11;99789.89;;;29.52;27.42
78841;BME280;68379;47.190;27.558;2023-05-29T12:18:41;99790.33;;;28.97;27.74
78841;BME280;68379;47.190;27.558;2023-05-29T12:21:11;99786.96;;;28.41;28.01
78841;BME280;68379;47.190;27.558;2023-05-29T12:23:41;99783.83;;;28.14;28.18
78841;BME280;68379;47.190;27.558;2023-05-29T12:26:11;99779.77;;;28.29;27.88
78841;BME280;68379;47.190;27.558;2023-05-29T12:28:45;99772.19;;;28.57;27.45
78841;BME280;68379;47.190;27.558;2023-05-29T12:31:15;99772.88;;;28.92;26.89
78841;BME280;68379;47.190;27.558;2023-05-29T12:34:00;99771.33;;;29.43;25.07
78841;BME280;68379;47.190;27.558;2023-05-29T12:36:30;99760.72;;;29.59;24.99
78841;BME280;68379;47.190;27.558;2023-05-29T12:39:06;99762.80;;;30.27;25.77
78841;BME280;68379;47.190;27.558;2023-05-29T12:41:38;99764.05;;;30.89;25.41
78841;BME280;68379;47.190;27.558;2023-05-29T12:44:08;99764.37;;;30.70;24.32
78841;BME280;68379;47.190;27.558;2023-05-29T12:46:39;99762.98;;;30.76;24.64
78841;BME280;68379;47.190;27.558;2023-05-29T12:49:15;99761.48;;;30.95;23.94
78841;BME280;68379;47.190;27.558;2023-05-29T12:51:46;99755.31;;;30.90;22.88
78841;BME280;68379;47.190;27.558;2023-05-29T12:54:17;99753.17;;;30.69;22.49
78841;BME280;68379;47.190;27.558;2023-05-29T12:56:46;99751.03;;;30.99;23.23
78841;BME280;68379;47.190;27.558;2023-05-29T12:59:20;99753.81;;;31.21;22.98
78841;BME280;68379;47.190;27.558;2023-05-29T13:01:50;99756.89;;;31.17;22.90
78841;BME280;68379;47.190;27.558;2023-05-29T13:04:21;99755.59;;;31.55;22.07
78841;BME280;68379;47.190;27.558;2023-05-29T13:06:51;99750.23;;;31.95;21.08
78841;BME280;68379;47.190;27.558;2023-05-29T13:09:20;99746.80;;;32.39;20.65
78841;BME280;68379;47.190;27.558;2023-05-29T13:11:50;99745.37;;;32.73;20.29
78841;BME280;68379;47.190;27.558;2023-05-29T13:14:21;99743.45;;;32.98;20.50